createdAt,value
2022-12-31T00:01:15.750Z,15.80
2022-12-31T00:03:42.535Z,15.80
2022-12-31T00:06:31.180Z,13.20
2022-12-31T00:08:59.065Z,13.70
2022-12-31T00:11:27.148Z,13.00
2022-12-31T00:13:54.110Z,14.80
2022-12-31T00:16:33.038Z,13.40
2022-12-31T00:18:59.884Z,14.40
2022-12-31T00:21:30.352Z,14.50
2022-12-31T00:23:57.046Z,14.50
2022-12-31T00:26:27.826Z,15.10
2022-12-31T00:28:55.769Z,16.80
2022-12-31T00:31:28.994Z,16.40
2022-12-31T00:33:56.450Z,15.40
2022-12-31T00:36:25.684Z,14.90
2022-12-31T00:38:53.343Z,16.60
2022-12-31T00:41:20.695Z,14.80
2022-12-31T00:43:47.362Z,16.70
2022-12-31T00:46:14.603Z,14.60
2022-12-31T00:48:41.432Z,16.30
2022-12-31T00:51:10.602Z,14.90
2022-12-31T00:53:37.573Z,17.50
2022-12-31T00:56:11.829Z,15.00
2022-12-31T00:58:38.507Z,14.80
2022-12-31T01:01:12.256Z,17.00
2022-12-31T01:03:38.884Z,16.70
2022-12-31T01:06:06.018Z,15.10
2022-12-31T01:08:32.874Z,16.40
2022-12-31T01:11:18.711Z,16.30
2022-12-31T01:13:52.098Z,15.50
2022-12-31T01:16:21.927Z,15.10
2022-12-31T01:18:48.727Z,15.80
2022-12-31T01:21:15.748Z,15.80
2022-12-31T01:23:42.294Z,15.90
2022-12-31T01:26:10.684Z,13.30
2022-12-31T01:28:37.219Z,15.30
2022-12-31T01:31:10.128Z,16.20
2022-12-31T01:33:37.014Z,16.30
2022-12-31T01:36:11.578Z,16.10
2022-12-31T01:38:38.397Z,17.40
2022-12-31T01:41:05.192Z,15.50
2022-12-31T01:44:10.398Z,18.30
2022-12-31T01:46:48.987Z,13.60
2022-12-31T01:49:32.066Z,16.60
2022-12-31T01:52:03.892Z,16.10
2022-12-31T01:54:31.901Z,14.90
2022-12-31T01:56:58.394Z,16.40
2022-12-31T01:59:26.007Z,16.80
2022-12-31T02:01:52.728Z,18.20
2022-12-31T02:04:21.072Z,15.10
2022-12-31T02:06:58.245Z,17.30
2022-12-31T02:09:24.970Z,16.70
2022-12-31T02:11:51.460Z,16.50
2022-12-31T02:14:39.692Z,12.00
2022-12-31T02:17:51.742Z,16.40
2022-12-31T02:20:42.425Z,15.90
2022-12-31T02:23:52.623Z,17.00
2022-12-31T02:26:53.572Z,13.60
2022-12-31T02:29:50.117Z,16.80
2022-12-31T02:32:46.791Z,15.30
2022-12-31T02:35:21.346Z,15.50
2022-12-31T02:37:51.071Z,14.30
2022-12-31T02:40:19.424Z,15.40
2022-12-31T02:42:51.522Z,15.70
2022-12-31T02:45:27.689Z,14.80
2022-12-31T02:48:33.760Z,16.20
2022-12-31T02:51:17.699Z,14.50
2022-12-31T02:54:19.299Z,15.40
2022-12-31T02:56:55.106Z,14.70
2022-12-31T02:59:46.804Z,13.30
2022-12-31T03:02:16.394Z,12.50
2022-12-31T03:04:51.990Z,14.00
2022-12-31T03:07:29.931Z,13.50
2022-12-31T03:09:56.873Z,13.90
2022-12-31T03:12:45.069Z,12.70
2022-12-31T03:15:32.145Z,13.10
2022-12-31T03:18:01.478Z,11.80
2022-12-31T03:20:54.152Z,13.30
2022-12-31T03:23:42.187Z,12.60
2022-12-31T03:26:10.942Z,10.80
2022-12-31T03:28:47.034Z,11.60
2022-12-31T03:31:15.609Z,9.60
2022-12-31T03:33:42.065Z,10.80
2022-12-31T03:36:13.137Z,10.10
2022-12-31T03:38:40.137Z,10.50
2022-12-31T03:41:09.823Z,10.00
2022-12-31T03:43:36.235Z,9.20
2022-12-31T03:46:02.736Z,9.30
2022-12-31T03:48:29.214Z,9.90
2022-12-31T03:50:55.819Z,8.40
2022-12-31T03:53:22.407Z,8.70
2022-12-31T03:55:53.130Z,8.30
2022-12-31T03:58:20.428Z,8.00
2022-12-31T04:00:47.012Z,7.80
2022-12-31T04:03:13.676Z,6.90
2022-12-31T04:05:40.620Z,8.50
2022-12-31T04:08:07.166Z,8.20
2022-12-31T04:10:33.731Z,7.70
2022-12-31T04:13:03.711Z,7.50
2022-12-31T04:15:30.243Z,8.20
2022-12-31T04:17:56.808Z,7.60
2022-12-31T04:20:23.443Z,7.60
2022-12-31T04:22:50.113Z,7.80
2022-12-31T04:25:16.778Z,8.40
2022-12-31T04:27:44.088Z,7.60
2022-12-31T04:30:11.867Z,7.30
2022-12-31T04:32:38.428Z,7.50
2022-12-31T04:35:05.933Z,6.90
2022-12-31T04:37:32.321Z,6.90
2022-12-31T04:40:05.093Z,7.30
2022-12-31T04:42:33.858Z,8.30
2022-12-31T04:45:00.347Z,7.60
2022-12-31T04:47:26.796Z,7.60
2022-12-31T04:49:53.321Z,6.60
2022-12-31T04:52:19.947Z,7.70
2022-12-31T04:54:46.523Z,6.60
2022-12-31T04:57:12.974Z,7.20
2022-12-31T04:59:39.551Z,8.30
2022-12-31T05:02:06.357Z,7.10
2022-12-31T05:04:33.258Z,7.40
2022-12-31T05:06:59.742Z,7.50
2022-12-31T05:09:27.752Z,7.40
2022-12-31T05:11:54.294Z,6.60
2022-12-31T05:14:20.784Z,6.70
2022-12-31T05:16:47.429Z,6.40
2022-12-31T05:19:14.222Z,6.60
2022-12-31T05:21:40.778Z,6.60
2022-12-31T05:24:07.369Z,6.90
2022-12-31T05:26:34.234Z,6.10
2022-12-31T05:29:00.892Z,5.90
2022-12-31T05:31:27.446Z,6.90
2022-12-31T05:33:53.949Z,6.50
2022-12-31T05:36:20.496Z,7.10
2022-12-31T05:38:46.918Z,6.70
2022-12-31T05:41:13.341Z,6.20
2022-12-31T05:43:39.968Z,6.90
2022-12-31T05:46:07.411Z,6.70
2022-12-31T05:48:34.037Z,6.50
2022-12-31T05:51:00.574Z,6.70
2022-12-31T05:53:27.175Z,6.80
2022-12-31T05:55:53.536Z,6.90
2022-12-31T05:58:20.155Z,7.00
2022-12-31T06:00:46.706Z,6.70
2022-12-31T06:03:13.406Z,6.60
2022-12-31T06:05:42.966Z,7.30
2022-12-31T06:08:10.827Z,6.10
2022-12-31T06:10:38.794Z,6.60
2022-12-31T06:13:05.395Z,6.90
2022-12-31T06:15:31.851Z,7.00
2022-12-31T06:17:58.511Z,6.70
2022-12-31T06:20:25.309Z,6.10
2022-12-31T06:22:51.865Z,6.50
2022-12-31T06:25:18.333Z,6.20
2022-12-31T06:27:45.030Z,6.40
2022-12-31T06:30:12.944Z,6.00
2022-12-31T06:32:40.158Z,6.00
2022-12-31T06:35:07.330Z,6.00
2022-12-31T06:37:34.014Z,6.10
2022-12-31T06:40:00.640Z,6.70
2022-12-31T06:42:30.767Z,5.80
2022-12-31T06:44:58.396Z,6.30
2022-12-31T06:47:25.346Z,6.10
2022-12-31T06:49:52.523Z,5.40
2022-12-31T06:52:19.055Z,5.10
2022-12-31T06:54:45.867Z,5.60
2022-12-31T06:57:12.707Z,5.00
2022-12-31T06:59:39.751Z,5.20
2022-12-31T07:02:16.313Z,4.50
2022-12-31T07:04:57.752Z,5.30
2022-12-31T07:07:46.704Z,5.10
2022-12-31T07:10:37.781Z,5.30
2022-12-31T07:13:46.222Z,4.80
2022-12-31T07:16:40.325Z,4.90
2022-12-31T07:19:31.111Z,4.90
2022-12-31T07:21:57.978Z,5.10
2022-12-31T07:24:25.274Z,5.10
2022-12-31T07:27:04.989Z,5.70
2022-12-31T07:30:01.130Z,5.20
2022-12-31T07:32:50.543Z,4.70
2022-12-31T07:35:48.889Z,4.80
2022-12-31T07:38:49.463Z,4.60
2022-12-31T07:41:53.381Z,4.60
2022-12-31T07:44:48.657Z,4.50
2022-12-31T07:47:26.677Z,4.60
2022-12-31T07:49:54.120Z,4.30
2022-12-31T07:52:21.226Z,4.40
2022-12-31T07:54:47.657Z,4.10
2022-12-31T07:57:16.601Z,4.40
2022-12-31T08:00:04.095Z,4.70
2022-12-31T08:03:13.044Z,4.60
2022-12-31T08:06:00.157Z,3.40
2022-12-31T08:08:46.087Z,3.30
2022-12-31T08:11:40.616Z,3.90
2022-12-31T08:14:11.485Z,3.50
2022-12-31T08:16:38.581Z,3.70
2022-12-31T08:19:05.579Z,4.50
2022-12-31T08:22:06.564Z,4.30
2022-12-31T08:25:24.219Z,3.50
2022-12-31T08:28:26.314Z,5.00
2022-12-31T08:31:18.410Z,3.90
2022-12-31T08:34:06.132Z,4.60
2022-12-31T08:36:56.111Z,4.10
2022-12-31T08:40:13.757Z,3.10
2022-12-31T08:42:43.487Z,2.90
2022-12-31T08:45:27.992Z,3.20
2022-12-31T08:48:28.805Z,3.40
2022-12-31T08:50:55.784Z,3.50
2022-12-31T08:53:22.616Z,3.50
2022-12-31T08:55:52.706Z,3.10
2022-12-31T08:58:25.287Z,2.90
2022-12-31T09:00:53.958Z,3.50
2022-12-31T09:04:15.490Z,3.30
2022-12-31T09:06:48.491Z,3.40
2022-12-31T09:10:00.573Z,3.20
2022-12-31T09:13:11.750Z,3.40
2022-12-31T09:16:25.492Z,4.10
2022-12-31T09:18:52.291Z,3.40
2022-12-31T09:21:19.008Z,3.80
2022-12-31T09:23:45.811Z,3.50
2022-12-31T09:26:45.740Z,3.80
2022-12-31T09:29:41.796Z,3.40
2022-12-31T09:32:13.657Z,3.10
2022-12-31T09:34:53.602Z,3.40
2022-12-31T09:37:45.893Z,2.80
2022-12-31T09:40:47.091Z,4.00
2022-12-31T09:43:49.843Z,3.00
2022-12-31T09:46:44.335Z,3.40
2022-12-31T09:49:52.313Z,3.10
2022-12-31T09:52:41.017Z,3.30
2022-12-31T09:55:23.842Z,3.20
2022-12-31T09:58:18.430Z,3.10
2022-12-31T10:01:22.093Z,3.10
2022-12-31T10:03:51.750Z,2.80
2022-12-31T10:06:27.684Z,3.30
2022-12-31T10:09:15.710Z,3.40
2022-12-31T10:12:24.504Z,3.60
2022-12-31T10:15:29.171Z,3.40
2022-12-31T10:18:04.295Z,3.40
2022-12-31T10:20:51.175Z,3.10
2022-12-31T10:23:35.908Z,3.40
2022-12-31T10:26:18.092Z,3.30
2022-12-31T10:28:59.351Z,3.40
2022-12-31T10:31:53.283Z,3.20
2022-12-31T10:35:05.433Z,3.30
2022-12-31T10:37:56.354Z,3.00
2022-12-31T10:41:00.139Z,3.10
2022-12-31T10:43:46.266Z,3.40
2022-12-31T10:46:38.549Z,4.20
2022-12-31T10:49:22.400Z,4.00
2022-12-31T10:52:03.982Z,4.40
2022-12-31T10:55:17.529Z,4.40
2022-12-31T10:58:35.315Z,3.70
2022-12-31T11:01:32.361Z,4.20
2022-12-31T11:04:36.222Z,4.10
2022-12-31T11:07:46.336Z,4.00
2022-12-31T11:10:35.700Z,6.40
2022-12-31T11:13:42.992Z,5.20
2022-12-31T11:16:33.696Z,5.00
2022-12-31T11:19:06.137Z,4.60
2022-12-31T11:21:59.369Z,4.40
2022-12-31T11:24:41.090Z,4.70
2022-12-31T11:27:51.943Z,4.00
2022-12-31T11:30:22.451Z,4.20
2022-12-31T11:33:23.471Z,4.10
2022-12-31T11:35:56.591Z,4.00
2022-12-31T11:38:29.775Z,4.50
2022-12-31T11:41:13.212Z,4.80
2022-12-31T11:44:10.077Z,4.40
2022-12-31T11:47:00.922Z,4.60
2022-12-31T11:49:39.622Z,4.50
2022-12-31T11:52:27.558Z,5.10
2022-12-31T11:55:23.661Z,6.00
2022-12-31T11:57:51.291Z,6.40
2022-12-31T12:00:22.013Z,7.00
2022-12-31T12:02:59.230Z,6.60
2022-12-31T12:05:26.328Z,5.70
2022-12-31T12:07:53.553Z,4.40
2022-12-31T12:10:35.986Z,4.70
2022-12-31T12:13:19.159Z,3.60
2022-12-31T12:15:52.085Z,4.50
2022-12-31T12:18:46.221Z,3.90
2022-12-31T12:21:23.808Z,3.50
2022-12-31T12:24:05.684Z,3.50
2022-12-31T12:26:34.030Z,2.90
2022-12-31T12:29:27.365Z,3.20
2022-12-31T12:32:05.181Z,3.20
2022-12-31T12:34:38.086Z,2.60
2022-12-31T12:37:16.484Z,3.00
2022-12-31T12:39:43.049Z,2.80
2022-12-31T12:42:13.776Z,3.70
2022-12-31T12:44:41.363Z,2.80
2022-12-31T12:47:14.163Z,3.10
2022-12-31T12:49:45.510Z,3.20
2022-12-31T12:52:21.652Z,3.10
2022-12-31T12:55:19.235Z,3.40
2022-12-31T12:58:21.100Z,3.40
2022-12-31T13:00:56.574Z,3.20
2022-12-31T13:03:29.947Z,2.90
2022-12-31T13:06:24.124Z,3.20
2022-12-31T13:09:08.282Z,2.90
2022-12-31T13:12:08.050Z,3.00
2022-12-31T13:14:56.697Z,2.70
2022-12-31T13:18:01.602Z,3.00
2022-12-31T13:20:49.217Z,2.60
2022-12-31T13:23:20.655Z,2.40
2022-12-31T13:25:59.217Z,3.10
2022-12-31T13:28:25.840Z,4.80
2022-12-31T13:31:04.789Z,3.50
2022-12-31T13:33:40.647Z,2.90
2022-12-31T13:36:09.713Z,3.30
2022-12-31T13:38:42.749Z,2.90
2022-12-31T13:41:29.926Z,2.20
2022-12-31T13:44:08.271Z,2.20
2022-12-31T13:47:06.395Z,2.20
2022-12-31T13:49:51.720Z,2.00
2022-12-31T13:52:38.304Z,2.60
2022-12-31T13:55:17.796Z,2.10
2022-12-31T13:58:04.449Z,2.20
2022-12-31T14:00:44.524Z,2.50
2022-12-31T14:03:49.115Z,2.60
2022-12-31T14:06:27.981Z,2.50
2022-12-31T14:08:54.461Z,2.60
2022-12-31T14:12:17.176Z,3.40
2022-12-31T14:15:04.632Z,3.60
2022-12-31T14:18:01.096Z,2.80
2022-12-31T14:21:01.573Z,3.00
2022-12-31T14:24:06.333Z,3.10
2022-12-31T14:26:42.495Z,2.60
2022-12-31T14:29:14.138Z,2.70
2022-12-31T14:31:51.131Z,2.50
2022-12-31T14:34:43.710Z,2.40
2022-12-31T14:37:41.764Z,2.10
2022-12-31T14:40:24.473Z,2.40
2022-12-31T14:43:16.150Z,2.70
2022-12-31T14:46:10.242Z,2.40
2022-12-31T14:48:52.937Z,2.60
2022-12-31T14:51:19.504Z,2.90
2022-12-31T14:53:53.493Z,2.80
2022-12-31T14:56:41.069Z,3.30
2022-12-31T14:59:26.715Z,3.30
2022-12-31T15:01:54.399Z,3.20
2022-12-31T15:04:45.128Z,2.90
2022-12-31T15:07:31.824Z,2.80
2022-12-31T15:10:48.200Z,2.70
2022-12-31T15:13:56.229Z,3.30
2022-12-31T15:16:39.250Z,2.50
2022-12-31T15:19:18.285Z,2.50
2022-12-31T15:22:04.948Z,3.00
2022-12-31T15:24:31.482Z,3.10
2022-12-31T15:27:00.856Z,4.10
2022-12-31T15:29:32.461Z,4.40
2022-12-31T15:32:02.190Z,3.50
2022-12-31T15:34:34.424Z,3.80
2022-12-31T15:37:04.272Z,3.90
2022-12-31T15:39:30.852Z,3.80
2022-12-31T15:42:36.648Z,3.60
2022-12-31T15:44:56.339Z,3.50
2022-12-31T15:47:39.184Z,4.30
2022-12-31T15:50:13.984Z,3.90
2022-12-31T15:52:47.371Z,3.50
2022-12-31T15:55:32.466Z,3.90
2022-12-31T15:58:04.394Z,3.70
2022-12-31T16:01:22.724Z,3.40
2022-12-31T16:03:57.004Z,3.10
2022-12-31T16:06:23.570Z,3.30
2022-12-31T16:08:50.196Z,3.70
2022-12-31T16:11:16.921Z,3.30
2022-12-31T16:13:49.182Z,3.30
2022-12-31T16:16:24.088Z,3.00
2022-12-31T16:18:52.390Z,3.50
2022-12-31T16:21:23.490Z,3.40
2022-12-31T16:23:52.137Z,4.00
2022-12-31T16:26:18.641Z,3.70
2022-12-31T16:28:47.773Z,3.60
2022-12-31T16:31:16.932Z,3.50
2022-12-31T16:33:44.826Z,3.50
2022-12-31T16:36:22.880Z,3.60
2022-12-31T16:38:49.643Z,3.40
2022-12-31T16:41:18.882Z,3.40
2022-12-31T16:43:48.439Z,3.40
2022-12-31T16:46:26.574Z,3.90
2022-12-31T16:49:11.921Z,3.60
2022-12-31T16:51:38.530Z,4.10
2022-12-31T16:54:05.130Z,3.90
2022-12-31T16:56:35.554Z,3.90
2022-12-31T16:59:11.687Z,4.40
2022-12-31T17:01:38.243Z,4.40
2022-12-31T17:04:10.003Z,3.90
2022-12-31T17:06:36.507Z,4.10
2022-12-31T17:09:12.157Z,4.30
2022-12-31T17:12:09.635Z,5.00
2022-12-31T17:14:48.773Z,3.70
2022-12-31T17:17:25.087Z,3.80
2022-12-31T17:19:56.942Z,3.90
2022-12-31T17:22:41.265Z,4.20
2022-12-31T17:25:20.546Z,3.90
2022-12-31T17:28:01.861Z,4.30
2022-12-31T17:30:34.566Z,4.60
2022-12-31T17:33:07.531Z,4.00
2022-12-31T17:35:36.664Z,4.60
2022-12-31T17:38:35.938Z,4.20
2022-12-31T17:41:05.239Z,4.40
2022-12-31T17:43:35.315Z,4.70
2022-12-31T17:46:03.380Z,4.30
2022-12-31T17:48:29.965Z,4.10
2022-12-31T17:50:59.982Z,3.70
2022-12-31T17:53:26.604Z,3.70
2022-12-31T17:55:55.616Z,4.00
2022-12-31T17:58:35.948Z,3.90
2022-12-31T18:01:05.743Z,3.60
2022-12-31T18:03:32.593Z,3.90
2022-12-31T18:05:59.242Z,4.00
2022-12-31T18:08:25.800Z,3.50
2022-12-31T18:10:52.805Z,4.20
2022-12-31T18:13:25.515Z,4.30
2022-12-31T18:15:52.464Z,4.00
2022-12-31T18:18:25.451Z,4.50
2022-12-31T18:20:58.661Z,4.00
2022-12-31T18:23:40.236Z,3.60
2022-12-31T18:26:13.271Z,4.20
2022-12-31T18:28:39.905Z,4.20
2022-12-31T18:31:09.163Z,4.60
2022-12-31T18:33:35.798Z,4.30
2022-12-31T18:36:10.394Z,4.00
2022-12-31T18:38:37.290Z,3.70
2022-12-31T18:41:04.109Z,4.30
2022-12-31T18:43:30.656Z,3.30
2022-12-31T18:45:57.469Z,4.30
2022-12-31T18:48:24.063Z,3.80
2022-12-31T18:50:50.610Z,4.10
2022-12-31T18:53:22.186Z,4.00
2022-12-31T18:55:54.752Z,3.50
2022-12-31T18:58:21.382Z,3.00
2022-12-31T19:00:48.439Z,3.20
2022-12-31T19:03:21.043Z,3.10
2022-12-31T19:05:51.462Z,3.50
2022-12-31T19:08:22.006Z,2.80
2022-12-31T19:10:50.548Z,3.10
2022-12-31T19:13:18.673Z,3.20
2022-12-31T19:15:52.466Z,3.00
2022-12-31T19:18:19.182Z,3.40
2022-12-31T19:20:45.696Z,3.20
2022-12-31T19:23:19.889Z,3.60
2022-12-31T19:25:47.372Z,3.30
2022-12-31T19:28:25.394Z,3.10
2022-12-31T19:30:52.244Z,3.40
2022-12-31T19:33:19.117Z,3.20
2022-12-31T19:35:46.341Z,3.60
2022-12-31T19:38:23.809Z,3.00
2022-12-31T19:40:51.670Z,3.10
2022-12-31T19:43:20.605Z,2.80
2022-12-31T19:45:47.604Z,3.70
2022-12-31T19:48:27.196Z,3.00
2022-12-31T19:50:58.793Z,3.00
2022-12-31T19:53:26.367Z,3.30
2022-12-31T19:55:53.008Z,3.00
2022-12-31T19:58:25.390Z,3.00
2022-12-31T20:00:57.089Z,3.20
2022-12-31T20:03:28.734Z,2.90
2022-12-31T20:06:07.652Z,2.80
2022-12-31T20:08:35.961Z,3.30
2022-12-31T20:11:18.148Z,2.50
2022-12-31T20:13:45.461Z,2.50
2022-12-31T20:16:16.310Z,3.00
2022-12-31T20:18:44.338Z,2.80
2022-12-31T20:21:17.209Z,2.50
2022-12-31T20:23:43.957Z,2.80
2022-12-31T20:26:10.899Z,2.80
2022-12-31T20:28:37.593Z,2.70
2022-12-31T20:31:09.651Z,2.30
2022-12-31T20:33:36.282Z,2.80
2022-12-31T20:36:08.121Z,3.30
2022-12-31T20:38:34.992Z,3.20
2022-12-31T20:41:06.761Z,4.00
2022-12-31T20:43:33.645Z,2.90
2022-12-31T20:46:09.465Z,2.90
2022-12-31T20:48:40.986Z,3.30
2022-12-31T20:51:07.609Z,3.40
2022-12-31T20:53:34.075Z,3.00
2022-12-31T20:56:08.107Z,3.10
2022-12-31T20:58:34.896Z,2.60
2022-12-31T21:01:03.356Z,2.70
2022-12-31T21:04:03.776Z,2.50
2022-12-31T21:06:16.538Z,3.30
2022-12-31T21:08:43.434Z,3.00
2022-12-31T21:11:28.715Z,3.00
2022-12-31T21:13:56.124Z,3.10
2022-12-31T21:16:22.973Z,2.50
2022-12-31T21:18:49.645Z,3.10
2022-12-31T21:21:16.329Z,2.70
2022-12-31T21:23:42.694Z,2.40
2022-12-31T21:26:09.448Z,3.00
2022-12-31T21:28:36.066Z,2.50
2022-12-31T21:31:05.006Z,2.70
2022-12-31T21:33:35.004Z,2.60
2022-12-31T21:36:04.744Z,2.90
2022-12-31T21:38:31.885Z,2.70
2022-12-31T21:41:03.127Z,2.20
2022-12-31T21:43:29.651Z,4.10
2022-12-31T21:46:04.352Z,2.90
2022-12-31T21:48:31.308Z,2.70
2022-12-31T21:51:07.771Z,2.50
2022-12-31T21:53:37.182Z,3.20
2022-12-31T21:56:07.851Z,3.10
2022-12-31T21:58:43.075Z,3.20
2022-12-31T22:01:39.882Z,3.20
2022-12-31T22:04:12.938Z,2.60
2022-12-31T22:06:48.820Z,3.70
2022-12-31T22:09:15.438Z,3.40
2022-12-31T22:11:42.116Z,3.30
2022-12-31T22:14:09.260Z,3.10
2022-12-31T22:16:36.044Z,2.90
2022-12-31T22:19:02.773Z,2.60
2022-12-31T22:21:29.185Z,2.40
2022-12-31T22:23:57.966Z,2.80
2022-12-31T22:26:27.576Z,3.10
2022-12-31T22:28:58.488Z,2.80
2022-12-31T22:31:26.936Z,2.70
2022-12-31T22:33:53.934Z,2.90
2022-12-31T22:36:22.100Z,3.20
2022-12-31T22:38:50.171Z,2.60
2022-12-31T22:41:19.187Z,2.90
2022-12-31T22:43:55.960Z,3.10
2022-12-31T22:46:27.923Z,2.90
2022-12-31T22:48:57.720Z,3.20
2022-12-31T22:51:24.266Z,2.50
2022-12-31T22:53:50.912Z,2.90
2022-12-31T22:56:18.097Z,2.60
2022-12-31T22:58:44.799Z,3.00
2022-12-31T23:01:22.873Z,3.20
2022-12-31T23:03:51.213Z,3.50
2022-12-31T23:06:18.802Z,6.80
2022-12-31T23:09:05.230Z,9.40
2022-12-31T23:11:33.494Z,9.20
2022-12-31T23:14:18.797Z,6.30
2022-12-31T23:17:29.790Z,6.10
2022-12-31T23:20:09.149Z,4.90
2022-12-31T23:22:54.549Z,5.50
2022-12-31T23:25:21.088Z,5.10
2022-12-31T23:27:47.621Z,4.50
2022-12-31T23:30:14.192Z,4.40
2022-12-31T23:32:40.727Z,4.10
2022-12-31T23:35:10.077Z,4.60
2022-12-31T23:37:37.037Z,5.50
2022-12-31T23:40:04.357Z,4.60
2022-12-31T23:42:30.716Z,4.70
2022-12-31T23:44:57.312Z,4.40
2022-12-31T23:47:24.012Z,4.20
2022-12-31T23:49:50.605Z,3.50
2022-12-31T23:52:17.245Z,3.90
2022-12-31T23:54:43.816Z,3.80
2022-12-31T23:57:10.420Z,4.70
2022-12-31T23:59:36.909Z,4.60
